Altus, Arkansas
Current Conditions -  °F | °C
As of 4:24 AM on Sunday 26 Oct 2014 (Local Time) from KFSM Reporting Station
Haze Haze  
Wind Chill: 61°   Ceiling: Unl
Heat Index: 61°   Visibility: 1.5mi
Dew Point: 60°   Wind: 3mph
Humidity: 97%   Direction: 60°ENE
Pressure: 29.99"   Gusts: NA
Location:  35.45°N, 93.76°W
Report Text: KFSM 260924Z AUTO 06003KT 1 1/2SM BR FEW004 16/16 A2999 RMK AO2 T01610156
Loading
Personal Weather Stations






























Interactive Weather Map
Tropical Storm Tracking
New forecast layout! Learn more

10-Day Weather Forecast

Advertisements
Track Severe Weather on mobile